Time;durP1;ratioP1;P1;durP2;ratioP2;P2;SDS_P1;SDS_P2;PMS_P1;PMS_P2;Temp;Humidity;BMP_temperature;BMP_pressure;BME280_temperature;BME280_humidity;BME280_pressure;Samples;Min_cycle;Max_cycle;Signal;HPM_P1;HPM_P2
2022/01/03 18:19:50;;;;;;;6.60;3.22;;;;;;;18.60;56.05;99493.47;4953775;29;20526;-76
2022/01/03 18:22:16;;;;;;;6.25;3.45;;;;;;;18.62;55.95;99494.22;4940648;29;20063;-76
2022/01/03 18:24:42;;;;;;;5.68;2.97;;;;;;;18.61;56.02;99485.47;4940636;29;20038;-76
2022/01/03 18:27:07;;;;;;;6.22;3.17;;;;;;;18.59;56.14;99478.53;4938759;29;20027;-77
2022/01/03 18:29:33;;;;;;;5.13;2.95;;;;;;;18.57;56.22;99483.03;4920889;29;20028;-76
2022/01/03 18:31:59;;;;;;;6.22;3.30;;;;;;;18.55;56.14;99476.97;4940268;29;20042;-77
2022/01/03 18:35:59;;;;;;;4.72;2.47;;;;;;;18.60;56.19;99472.31;5088461;27;20390;-89
2022/01/03 18:38:27;;;;;;;6.35;3.15;;;;;;;18.57;56.35;99475.09;5089600;28;20040;-90
2022/01/03 18:40:53;;;;;;;5.63;3.00;;;;;;;18.57;56.20;99475.97;5092206;28;20028;-90
2022/01/03 18:43:19;;;;;;;6.45;3.05;;;;;;;18.57;56.27;99475.09;5085429;28;20052;-89
2022/01/03 18:45:45;;;;;;;6.15;3.15;;;;;;;18.59;56.39;99468.81;5072691;28;20062;-92
2022/01/03 18:48:10;;;;;;;5.47;3.15;;;;;;;18.60;56.59;99474.97;5072084;28;20020;-91
2022/01/03 18:50:37;;;;;;;6.78;3.53;;;;;;;18.58;56.31;99466.25;5080195;28;20016;-90
2022/01/03 18:53:03;;;;;;;7.60;3.55;;;;;;;18.58;56.26;99463.59;5070907;28;20100;-88
2022/01/03 18:55:29;;;;;;;6.93;3.72;;;;;;;18.54;56.51;99456.78;5092072;28;20032;-90
2022/01/03 18:58:03;;;;;;;6.47;3.20;;;;;;;18.56;56.71;99452.25;5074867;28;20116;-89
2022/01/03 19:00:32;;;;;;;8.05;3.92;;;;;;;18.57;56.57;99448.69;5074941;28;20035;-87
2022/01/03 19:03:04;;;;;;;7.13;3.97;;;;;;;18.56;56.69;99441.69;5073974;28;20035;-89
2022/01/03 19:05:31;;;;;;;8.38;3.88;;;;;;;18.59;56.76;99444.19;5074949;28;20382;-89
2022/01/03 19:08:06;;;;;;;8.10;4.00;;;;;;;18.56;56.66;99431.97;5090945;28;20035;-90
2022/01/03 19:10:34;;;;;;;8.48;4.10;;;;;;;18.58;56.87;99447.75;5070533;28;20478;-89
2022/01/03 19:13:04;;;;;;;6.05;3.78;;;;;;;18.59;56.73;99441.53;5074379;28;20025;-88
2022/01/03 19:15:31;;;;;;;7.35;3.85;;;;;;;18.60;56.82;99437.97;5054455;28;20543;-86
2022/01/03 19:18:04;;;;;;;7.45;3.55;;;;;;;18.59;56.80;99431.81;5054298;28;20047;-86
2022/01/03 19:20:36;;;;;;;7.63;3.85;;;;;;;18.58;57.10;99429.25;5054143;28;20040;-87
2022/01/03 19:23:02;;;;;;;7.70;4.13;;;;;;;18.57;57.08;99422.25;5054398;28;20426;-87
2022/01/03 19:25:33;;;;;;;7.85;3.58;;;;;;;18.56;56.80;99421.41;5069962;28;20028;-88
2022/01/03 19:28:01;;;;;;;8.77;4.68;;;;;;;18.58;57.25;99426.59;5073255;28;20036;-86
2022/01/03 19:30:30;;;;;;;13.48;4.45;;;;;;;18.56;57.05;99418.78;5073164;28;20091;-89
2022/01/03 19:33:19;;;;;;;9.73;4.78;;;;;;;18.57;57.13;99416.97;5073015;28;20050;-88
2022/01/03 19:38:30;;;;;;;10.00;4.47;;;;;;;18.59;56.78;99410.66;5071202;28;20055;-86
2022/01/03 19:40:58;;;;;;;8.73;4.15;;;;;;;18.56;57.16;99410.84;5103887;28;20056;-87
2022/01/03 19:43:30;;;;;;;8.20;4.35;;;;;;;18.58;57.10;99408.09;5087019;28;20469;-86
2022/01/03 19:46:02;;;;;;;8.35;4.43;;;;;;;18.52;57.14;99394.28;5081018;28;20021;-90
2022/01/03 19:48:33;;;;;;;9.40;4.55;;;;;;;18.55;57.01;99397.69;5074015;28;20025;-89
2022/01/03 19:50:58;;;;;;;9.95;4.50;;;;;;;18.56;56.75;99389.72;5074303;28;20425;-90
2022/01/03 19:53:24;;;;;;;9.82;4.05;;;;;;;18.56;56.99;99389.72;5056854;28;20052;-87
2022/01/03 19:55:50;;;;;;;11.20;4.30;;;;;;;18.58;57.05;99384.31;5056187;28;20040;-92
2022/01/03 19:58:16;;;;;;;9.50;4.50;;;;;;;18.58;56.95;99387.81;5056194;28;20414;-86
2022/01/03 20:00:42;;;;;;;11.95;4.78;;;;;;;18.57;57.42;99379.97;5072371;28;20067;-91
2022/01/03 20:03:08;;;;;;;8.52;4.85;;;;;;;18.57;57.55;99374.69;5055691;28;20036;-84
2022/01/03 20:05:35;;;;;;;10.93;5.00;;;;;;;18.60;57.68;99374.53;5054638;28;20048;-88
2022/01/03 20:08:03;;;;;;;10.27;4.82;;;;;;;18.60;57.50;99363.97;5070508;28;20059;-85
2022/01/03 20:10:33;;;;;;;13.73;5.40;;;;;;;18.61;57.28;99366.53;5072422;28;20032;-86
2022/01/03 20:13:06;;;;;;;11.30;5.40;;;;;;;18.61;57.63;99366.53;5054973;28;20054;-87
2022/01/03 20:15:35;;;;;;;11.77;5.22;;;;;;;18.60;57.83;99369.25;5056641;28;20467;-87
2022/01/03 20:18:04;;;;;;;12.85;5.22;;;;;;;18.62;57.66;99367.38;5059992;28;20033;-92
2022/01/03 20:20:33;;;;;;;12.85;5.93;;;;;;;18.60;57.72;99369.25;5055325;28;20032;-89
2022/01/03 20:23:05;;;;;;;14.05;5.80;;;;;;;18.59;58.05;99356.97;5055188;28;20367;-89
2022/01/03 20:25:34;;;;;;;14.10;6.22;;;;;;;18.62;57.94;99362.09;5055146;28;20091;-86
2022/01/03 20:28:03;;;;;;;11.35;5.38;;;;;;;18.63;58.26;99358.50;5055326;28;20029;-88
2022/01/03 20:30:31;;;;;;;12.25;5.70;;;;;;;18.65;58.42;99351.38;5055546;28;20033;-90
2022/01/03 20:32:56;;;;;;;13.00;5.65;;;;;;;18.64;58.32;99345.22;5072745;28;20041;-88
2022/01/03 20:35:23;;;;;;;13.20;6.30;;;;;;;18.65;58.65;99340.78;5072298;28;20494;-91
2022/01/03 20:37:49;;;;;;;15.52;7.10;;;;;;;18.67;58.09;99332.75;5056814;28;20040;-89
2022/01/03 20:40:15;;;;;;;14.00;6.53;;;;;;;18.65;58.65;99325.78;5056034;28;20033;-85
2022/01/03 20:42:41;;;;;;;18.90;6.97;;;;;;;18.67;58.53;99328.34;5053205;28;20037;-86
2022/01/03 20:45:10;;;;;;;12.23;6.32;;;;;;;18.68;58.41;99322.13;5051984;28;20345;-88
2022/01/03 20:47:38;;;;;;;13.50;6.70;;;;;;;18.69;58.34;99325.63;5035980;28;20032;-84
2022/01/03 20:50:08;;;;;;;14.65;6.43;;;;;;;18.72;58.38;99326.31;5053611;28;20021;-87
2022/01/03 20:52:34;;;;;;;15.05;6.47;;;;;;;18.72;57.88;99310.44;5036115;28;20029;-83
2022/01/03 20:55:00;;;;;;;16.30;6.70;;;;;;;18.73;58.08;99311.28;5036235;28;20047;-86
2022/01/03 20:57:45;;;;;;;12.98;6.53;;;;;;;18.71;57.89;99308.75;5052183;28;20034;-88
2022/01/03 21:00:14;;;;;;;13.90;6.78;;;;;;;18.74;57.81;99303.28;5038238;28;20409;-89
2022/01/03 21:02:45;;;;;;;12.73;5.97;;;;;;;18.73;57.76;99301.59;5053163;28;20029;-93
2022/01/03 21:05:15;;;;;;;14.07;6.65;;;;;;;18.75;58.26;99299.69;5036104;28;20057;-93
2022/01/03 21:07:41;;;;;;;13.68;6.05;;;;;;;18.74;58.20;99303.28;5036316;28;20056;-85
2022/01/03 21:10:08;;;;;;;14.35;5.60;;;;;;;18.72;58.09;99297.25;5036984;28;20040;-85
2022/01/03 21:12:34;;;;;;;10.43;5.45;;;;;;;18.74;58.14;99287.44;5040365;28;20021;-86
2022/01/03 21:15:00;;;;;;;12.73;5.97;;;;;;;18.75;57.92;99289.13;5034525;28;20446;-84
2022/01/03 21:17:32;;;;;;;14.05;5.38;;;;;;;18.75;57.85;99283.84;5055590;28;20447;-89
2022/01/03 21:20:03;;;;;;;11.77;5.70;;;;;;;18.72;57.88;99278.75;5049211;28;20056;-89
2022/01/03 21:22:35;;;;;;;12.90;5.63;;;;;;;18.76;57.60;99280.28;5060909;28;20037;-89
2022/01/03 21:25:04;;;;;;;10.63;4.90;;;;;;;18.73;57.72;99275.16;5088869;28;20056;-88
2022/01/03 21:27:34;;;;;;;11.38;5.60;;;;;;;18.73;57.73;99259.28;5075632;28;20027;-87
2022/01/03 21:30:07;;;;;;;14.45;5.55;;;;;;;18.72;57.56;99254.94;5091579;28;20092;-87
2022/01/03 21:32:33;;;;;;;11.85;5.57;;;;;;;18.72;57.53;99252.31;5090035;28;20028;-88
2022/01/03 21:35:02;;;;;;;11.32;5.75;;;;;;;18.73;57.61;99248.72;5083804;28;20131;-88
2022/01/03 21:37:36;;;;;;;9.70;5.28;;;;;;;18.72;57.56;99252.31;5076610;28;20118;-86
2022/01/03 21:40:05;;;;;;;13.77;5.45;;;;;;;18.74;57.58;99245.13;5094425;28;20046;-87
2022/01/03 21:42:35;;;;;;;11.65;5.63;;;;;;;18.76;57.57;99243.28;5094944;28;20031;-86
2022/01/03 21:45:08;;;;;;;11.52;5.53;;;;;;;18.73;57.75;99243.44;5094170;28;20024;-87
2022/01/03 21:47:34;;;;;;;13.75;5.63;;;;;;;18.73;57.90;99243.44;5094836;28;20173;-82
2022/01/03 21:50:03;;;;;;;13.40;5.43;;;;;;;18.75;57.79;99230.97;5095947;28;20089;-87
2022/01/03 21:52:35;;;;;;;12.77;5.22;;;;;;;18.76;57.59;99238.00;5095193;28;20031;-87
2022/01/03 21:55:07;;;;;;;11.68;5.22;;;;;;;18.76;57.70;99231.84;5077964;28;20028;-88
2022/01/03 21:57:35;;;;;;;11.52;5.35;;;;;;;18.74;57.85;99229.28;5077992;28;20052;-88
2022/01/03 22:00:06;;;;;;;13.32;5.30;;;;;;;18.77;58.13;99222.97;5077865;28;20032;-83
2022/01/03 22:02:36;;;;;;;10.32;5.15;;;;;;;18.76;57.80;99226.56;5095704;28;20387;-82
2022/01/03 22:05:05;;;;;;;11.30;5.22;;;;;;;18.77;57.92;99223.84;5078082;28;20035;-88
2022/01/03 22:07:38;;;;;;;12.57;5.05;;;;;;;18.76;58.01;99201.00;5095897;28;20023;-88
2022/01/03 22:10:06;;;;;;;13.05;5.05;;;;;;;18.79;57.95;99207.88;5078153;28;20024;-88
2022/01/03 22:12:32;;;;;;;9.27;5.32;;;;;;;18.76;57.84;99197.47;5094312;28;20500;-81
2022/01/03 22:15:01;;;;;;;10.95;4.45;;;;;;;18.76;58.05;99195.69;5077313;28;20032;-86
2022/01/03 22:17:35;;;;;;;12.27;5.38;;;;;;;18.76;57.76;99190.41;5077911;28;20031;-82
2022/01/03 22:20:01;;;;;;;10.85;5.20;;;;;;;18.76;57.72;99190.41;5077618;28;20110;-82
2022/01/03 22:22:44;;;;;;;12.05;5.32;;;;;;;18.81;57.69;99184.84;5077923;28;20070;-80
2022/01/03 22:25:09;;;;;;;11.27;4.93;;;;;;;18.77;57.68;99181.53;5078022;28;20034;-86
2022/01/03 22:27:35;;;;;;;12.80;5.03;;;;;;;18.79;57.81;99177.00;5072135;28;20036;-81
2022/01/03 22:30:08;;;;;;;12.20;4.95;;;;;;;18.83;57.58;99179.50;5074446;28;20114;-86
2022/01/03 22:32:34;;;;;;;9.60;4.88;;;;;;;18.79;57.87;99179.66;5092101;28;20024;-85
2022/01/03 22:35:06;;;;;;;14.25;5.05;;;;;;;18.81;57.95;99170.78;5075720;28;20415;-82
2022/01/03 22:37:32;;;;;;;10.10;4.32;;;;;;;18.79;57.88;99169.06;5076050;28;20029;-83
2022/01/03 22:40:04;;;;;;;11.68;4.28;;;;;;;18.82;57.94;99164.53;5075854;28;20028;-81
2022/01/03 22:42:32;;;;;;;9.30;4.63;;;;;;;18.82;57.68;99156.63;5090554;28;20363;-83
2022/01/03 22:45:07;;;;;;;11.18;4.70;;;;;;;18.82;57.45;99157.47;5090523;28;20020;-80
2022/01/03 22:47:36;;;;;;;8.32;4.00;;;;;;;18.78;57.73;99146.22;5074453;28;20107;-81
2022/01/03 22:50:05;;;;;;;8.88;3.92;;;;;;;18.82;57.58;99146.91;5074630;28;20029;-81
2022/01/03 22:52:36;;;;;;;9.40;4.43;;;;;;;18.81;57.63;99144.34;5074615;28;20115;-85
2022/01/03 22:55:03;;;;;;;10.77;4.07;;;;;;;18.81;57.45;99133.78;5090472;28;20435;-84
2022/01/03 22:57:37;;;;;;;9.52;4.65;;;;;;;18.79;57.38;99124.13;5090550;28;20032;-84
2022/01/03 23:00:11;;;;;;;9.63;4.10;;;;;;;18.81;57.54;99124.06;5090464;28;20028;-85
2022/01/03 23:02:37;;;;;;;8.10;4.05;;;;;;;18.79;57.28;99123.28;5074870;28;20191;-85
2022/01/03 23:05:03;;;;;;;7.80;3.90;;;;;;;18.81;57.55;99117.91;5090798;28;20446;-81
2022/01/03 23:07:31;;;;;;;7.93;3.58;;;;;;;18.82;57.44;99109.91;5090326;28;20028;-82
2022/01/03 23:10:10;;;;;;;10.20;3.72;;;;;;;18.84;57.04;99112.47;5090491;28;20129;-82
2022/01/03 23:12:38;;;;;;;8.50;4.18;;;;;;;18.82;57.31;99109.03;5074662;28;20032;-82
2022/01/03 23:15:08;;;;;;;8.10;4.03;;;;;;;18.81;57.26;99105.56;5074728;28;20346;-84
2022/01/03 23:17:38;;;;;;;10.25;4.15;;;;;;;18.82;57.41;99103.75;5074515;28;20052;-84
2022/01/03 23:20:07;;;;;;;6.88;3.45;;;;;;;18.81;57.01;99096.75;5073648;28;20029;-82
2022/01/03 23:22:33;;;;;;;7.63;3.80;;;;;;;18.76;57.05;99111.13;5076673;28;20351;-85
2022/01/03 23:25:06;;;;;;;7.00;3.58;;;;;;;18.79;57.38;99100.34;5094106;28;20037;-82
2022/01/03 23:27:31;;;;;;;7.75;3.80;;;;;;;18.81;56.94;99086.19;5078439;28;20052;-85
2022/01/03 23:30:05;;;;;;;8.73;4.00;;;;;;;18.79;57.12;99088.91;5094720;28;20518;-83
2022/01/03 23:32:38;;;;;;;6.93;3.70;;;;;;;18.79;57.06;99086.28;5077368;28;20024;-81
2022/01/03 23:35:05;;;;;;;8.93;3.22;;;;;;;18.75;57.10;99077.66;5094018;28;20133;-85
2022/01/03 23:37:36;;;;;;;6.00;3.50;;;;;;;18.76;57.00;99068.81;5093916;28;20107;-85
2022/01/03 23:40:07;;;;;;;6.65;3.92;;;;;;;18.78;56.82;99060.78;5094360;28;20115;-85
2022/01/03 23:42:45;;;;;;;7.40;3.38;;;;;;;18.76;57.01;99058.25;5076834;28;20044;-82
2022/01/03 23:45:14;;;;;;;8.10;3.50;;;;;;;18.78;56.93;99056.34;5078093;28;20027;-81
2022/01/03 23:47:41;;;;;;;9.38;3.65;;;;;;;18.79;57.07;99051.91;5093881;28;20024;-82
2022/01/03 23:50:07;;;;;;;7.00;3.65;;;;;;;18.77;57.26;99044.09;5093947;28;20454;-83
2022/01/03 23:52:37;;;;;;;5.60;2.78;;;;;;;18.78;57.13;99040.50;5078078;28;20093;-83
2022/01/03 23:55:07;;;;;;;5.28;3.03;;;;;;;18.76;56.86;99037.09;5076903;28;20043;-83
2022/01/03 23:57:35;;;;;;;5.00;2.70;;;;;;;18.77;56.88;99049.38;5093484;28;20032;-81
